sensor_id;sensor_type;location;lat;lon;timestamp;temperature;humidity
43991;DHT22;29654;50.784;20.604;2024-02-04T00:00:21;13.90;59.20
43991;DHT22;29654;50.784;20.604;2024-02-04T00:05:23;13.90;59.20
43991;DHT22;29654;50.784;20.604;2024-02-04T00:10:28;13.90;59.10
43991;DHT22;29654;50.784;20.604;2024-02-04T00:15:30;13.80;59.10
43991;DHT22;29654;50.784;20.604;2024-02-04T00:20:33;13.80;59.00
43991;DHT22;29654;50.784;20.604;2024-02-04T00:25:37;13.80;59.10
43991;DHT22;29654;50.784;20.604;2024-02-04T00:30:42;13.80;59.20
43991;DHT22;29654;50.784;20.604;2024-02-04T00:35:45;13.80;59.10
43991;DHT22;29654;50.784;20.604;2024-02-04T00:40:49;13.80;59.00
43991;DHT22;29654;50.784;20.604;2024-02-04T00:45:53;13.80;59.00
43991;DHT22;29654;50.784;20.604;2024-02-04T00:50:57;13.80;59.10
43991;DHT22;29654;50.784;20.604;2024-02-04T00:56:02;13.70;59.20
43991;DHT22;29654;50.784;20.604;2024-02-04T01:01:05;13.80;59.40
43991;DHT22;29654;50.784;20.604;2024-02-04T01:06:08;13.80;59.50
43991;DHT22;29654;50.784;20.604;2024-02-04T01:11:12;13.80;59.40
43991;DHT22;29654;50.784;20.604;2024-02-04T01:16:15;13.80;59.40
43991;DHT22;29654;50.784;20.604;2024-02-04T01:21:18;13.90;59.40
43991;DHT22;29654;50.784;20.604;2024-02-04T01:26:22;13.90;59.20
43991;DHT22;29654;50.784;20.604;2024-02-04T01:31:25;13.90;59.20
43991;DHT22;29654;50.784;20.604;2024-02-04T01:36:28;13.90;59.20
43991;DHT22;29654;50.784;20.604;2024-02-04T01:41:32;13.80;59.20
43991;DHT22;29654;50.784;20.604;2024-02-04T01:46:35;13.80;59.30
43991;DHT22;29654;50.784;20.604;2024-02-04T01:51:37;13.80;59.40
43991;DHT22;29654;50.784;20.604;2024-02-04T01:56:42;13.80;59.50
43991;DHT22;29654;50.784;20.604;2024-02-04T02:01:46;13.70;59.60
43991;DHT22;29654;50.784;20.604;2024-02-04T02:06:49;13.70;59.60
43991;DHT22;29654;50.784;20.604;2024-02-04T02:11:59;13.70;59.60
43991;DHT22;29654;50.784;20.604;2024-02-04T02:17:12;13.60;59.60
43991;DHT22;29654;50.784;20.604;2024-02-04T02:22:26;13.60;59.80
43991;DHT22;29654;50.784;20.604;2024-02-04T02:27:32;13.50;60.30
43991;DHT22;29654;50.784;20.604;2024-02-04T02:32:35;13.50;59.90
43991;DHT22;29654;50.784;20.604;2024-02-04T02:37:43;13.50;59.80
43991;DHT22;29654;50.784;20.604;2024-02-04T02:42:52;13.60;59.90
43991;DHT22;29654;50.784;20.604;2024-02-04T02:47:55;13.60;59.80
43991;DHT22;29654;50.784;20.604;2024-02-04T02:52:58;13.60;59.80
43991;DHT22;29654;50.784;20.604;2024-02-04T02:58:03;13.60;59.70
43991;DHT22;29654;50.784;20.604;2024-02-04T03:03:06;13.60;59.60
43991;DHT22;29654;50.784;20.604;2024-02-04T03:08:10;13.60;59.40
43991;DHT22;29654;50.784;20.604;2024-02-04T03:13:19;13.50;59.20
43991;DHT22;29654;50.784;20.604;2024-02-04T03:18:25;13.40;59.00
43991;DHT22;29654;50.784;20.604;2024-02-04T03:23:30;13.30;58.90
43991;DHT22;29654;50.784;20.604;2024-02-04T03:28:35;13.20;58.80
43991;DHT22;29654;50.784;20.604;2024-02-04T03:33:38;13.10;58.70
43991;DHT22;29654;50.784;20.604;2024-02-04T03:38:40;13.10;58.70
43991;DHT22;29654;50.784;20.604;2024-02-04T03:43:45;13.00;58.50
43991;DHT22;29654;50.784;20.604;2024-02-04T03:48:48;12.90;58.40
43991;DHT22;29654;50.784;20.604;2024-02-04T03:53:51;12.80;58.30
43991;DHT22;29654;50.784;20.604;2024-02-04T03:58:55;12.80;58.30
43991;DHT22;29654;50.784;20.604;2024-02-04T04:03:58;12.70;57.90
43991;DHT22;29654;50.784;20.604;2024-02-04T04:09:01;12.60;57.80
43991;DHT22;29654;50.784;20.604;2024-02-04T04:14:05;12.50;57.80
43991;DHT22;29654;50.784;20.604;2024-02-04T04:19:07;12.50;57.70
43991;DHT22;29654;50.784;20.604;2024-02-04T04:24:10;12.40;57.70
43991;DHT22;29654;50.784;20.604;2024-02-04T04:29:14;12.20;57.60
43991;DHT22;29654;50.784;20.604;2024-02-04T04:34:17;12.20;57.60
43991;DHT22;29654;50.784;20.604;2024-02-04T04:39:20;12.10;57.40
43991;DHT22;29654;50.784;20.604;2024-02-04T04:44:24;12.00;57.50
43991;DHT22;29654;50.784;20.604;2024-02-04T04:49:28;12.00;57.60
43991;DHT22;29654;50.784;20.604;2024-02-04T04:54:33;11.90;57.60
43991;DHT22;29654;50.784;20.604;2024-02-04T04:59:37;11.90;57.60
43991;DHT22;29654;50.784;20.604;2024-02-04T05:04:42;11.80;57.50
43991;DHT22;29654;50.784;20.604;2024-02-04T05:09:45;11.80;57.60
43991;DHT22;29654;50.784;20.604;2024-02-04T05:14:52;11.70;57.60
43991;DHT22;29654;50.784;20.604;2024-02-04T05:19:55;11.70;57.40
43991;DHT22;29654;50.784;20.604;2024-02-04T05:24:58;11.60;57.50
43991;DHT22;29654;50.784;20.604;2024-02-04T05:30:02;11.60;57.50
43991;DHT22;29654;50.784;20.604;2024-02-04T05:35:07;11.50;57.50
43991;DHT22;29654;50.784;20.604;2024-02-04T05:40:11;11.50;57.60
43991;DHT22;29654;50.784;20.604;2024-02-04T05:45:17;11.50;57.70
43991;DHT22;29654;50.784;20.604;2024-02-04T05:50:20;11.50;57.80
43991;DHT22;29654;50.784;20.604;2024-02-04T05:55:23;11.40;57.80
43991;DHT22;29654;50.784;20.604;2024-02-04T06:00:27;11.40;57.70
43991;DHT22;29654;50.784;20.604;2024-02-04T06:05:29;11.40;57.70
43991;DHT22;29654;50.784;20.604;2024-02-04T06:10:32;11.30;57.70
43991;DHT22;29654;50.784;20.604;2024-02-04T06:15:36;11.30;57.70
43991;DHT22;29654;50.784;20.604;2024-02-04T06:20:39;11.30;57.60
43991;DHT22;29654;50.784;20.604;2024-02-04T06:25:41;11.30;57.70
43991;DHT22;29654;50.784;20.604;2024-02-04T06:30:45;11.20;57.60
43991;DHT22;29654;50.784;20.604;2024-02-04T06:35:48;11.20;57.60
43991;DHT22;29654;50.784;20.604;2024-02-04T06:40:51;11.20;57.70
43991;DHT22;29654;50.784;20.604;2024-02-04T06:45:55;11.20;57.70
43991;DHT22;29654;50.784;20.604;2024-02-04T06:50:58;11.30;57.70
43991;DHT22;29654;50.784;20.604;2024-02-04T06:56:00;11.30;57.90
43991;DHT22;29654;50.784;20.604;2024-02-04T07:01:04;11.40;57.70
43991;DHT22;29654;50.784;20.604;2024-02-04T07:06:07;11.40;57.70
43991;DHT22;29654;50.784;20.604;2024-02-04T07:11:10;11.50;57.60
43991;DHT22;29654;50.784;20.604;2024-02-04T07:16:14;11.60;57.40
43991;DHT22;29654;50.784;20.604;2024-02-04T07:21:17;11.60;57.50
43991;DHT22;29654;50.784;20.604;2024-02-04T07:26:19;11.70;57.50
43991;DHT22;29654;50.784;20.604;2024-02-04T07:31:23;11.70;57.30
43991;DHT22;29654;50.784;20.604;2024-02-04T07:36:26;11.80;57.20
43991;DHT22;29654;50.784;20.604;2024-02-04T07:41:29;11.80;57.20
43991;DHT22;29654;50.784;20.604;2024-02-04T07:46:33;11.90;57.30
43991;DHT22;29654;50.784;20.604;2024-02-04T07:51:35;12.00;57.10
43991;DHT22;29654;50.784;20.604;2024-02-04T07:56:39;12.10;57.20
43991;DHT22;29654;50.784;20.604;2024-02-04T08:01:43;12.10;57.00
43991;DHT22;29654;50.784;20.604;2024-02-04T08:06:46;12.20;56.80
43991;DHT22;29654;50.784;20.604;2024-02-04T08:11:49;12.20;56.70
43991;DHT22;29654;50.784;20.604;2024-02-04T08:16:53;12.30;56.70
43991;DHT22;29654;50.784;20.604;2024-02-04T08:21:56;12.30;56.50
43991;DHT22;29654;50.784;20.604;2024-02-04T08:26:59;12.30;56.30
43991;DHT22;29654;50.784;20.604;2024-02-04T08:32:04;12.40;56.50
43991;DHT22;29654;50.784;20.604;2024-02-04T08:37:07;12.40;56.70
43991;DHT22;29654;50.784;20.604;2024-02-04T08:42:09;12.40;56.20
43991;DHT22;29654;50.784;20.604;2024-02-04T08:47:14;12.40;56.20
43991;DHT22;29654;50.784;20.604;2024-02-04T08:52:17;12.50;56.10
43991;DHT22;29654;50.784;20.604;2024-02-04T08:57:20;12.50;56.10
43991;DHT22;29654;50.784;20.604;2024-02-04T09:02:24;12.50;55.90
43991;DHT22;29654;50.784;20.604;2024-02-04T09:07:27;12.50;55.90
43991;DHT22;29654;50.784;20.604;2024-02-04T09:12:30;12.50;56.10
43991;DHT22;29654;50.784;20.604;2024-02-04T09:17:34;12.60;56.00
43991;DHT22;29654;50.784;20.604;2024-02-04T09:22:37;12.60;55.50
43991;DHT22;29654;50.784;20.604;2024-02-04T09:27:40;12.70;55.30
43991;DHT22;29654;50.784;20.604;2024-02-04T09:32:46;12.70;55.60
43991;DHT22;29654;50.784;20.604;2024-02-04T09:37:49;12.70;54.90
43991;DHT22;29654;50.784;20.604;2024-02-04T09:42:51;12.70;54.50
43991;DHT22;29654;50.784;20.604;2024-02-04T09:47:56;12.80;54.60
43991;DHT22;29654;50.784;20.604;2024-02-04T09:53:01;12.90;54.10
43991;DHT22;29654;50.784;20.604;2024-02-04T09:58:05;12.90;53.90
43991;DHT22;29654;50.784;20.604;2024-02-04T10:03:09;13.00;54.10
43991;DHT22;29654;50.784;20.604;2024-02-04T10:08:12;13.10;54.00
43991;DHT22;29654;50.784;20.604;2024-02-04T10:13:14;13.10;53.70
43991;DHT22;29654;50.784;20.604;2024-02-04T10:18:18;13.20;53.90
43991;DHT22;29654;50.784;20.604;2024-02-04T10:23:22;13.20;53.80
43991;DHT22;29654;50.784;20.604;2024-02-04T10:28:25;13.30;54.00
43991;DHT22;29654;50.784;20.604;2024-02-04T10:33:31;13.40;54.00
43991;DHT22;29654;50.784;20.604;2024-02-04T10:38:34;13.50;54.00
43991;DHT22;29654;50.784;20.604;2024-02-04T10:43:37;13.60;53.90
43991;DHT22;29654;50.784;20.604;2024-02-04T10:48:42;13.70;53.40
43991;DHT22;29654;50.784;20.604;2024-02-04T10:53:46;13.80;53.40
43991;DHT22;29654;50.784;20.604;2024-02-04T10:58:49;13.70;53.30
43991;DHT22;29654;50.784;20.604;2024-02-04T11:03:55;13.80;53.40
43991;DHT22;29654;50.784;20.604;2024-02-04T11:08:58;13.80;53.40
43991;DHT22;29654;50.784;20.604;2024-02-04T11:14:04;13.80;53.20
43991;DHT22;29654;50.784;20.604;2024-02-04T11:19:22;13.80;53.00
43991;DHT22;29654;50.784;20.604;2024-02-04T11:24:54;13.80;53.10
43991;DHT22;29654;50.784;20.604;2024-02-04T11:30:06;13.80;53.20
43991;DHT22;29654;50.784;20.604;2024-02-04T11:35:12;13.80;53.20
43991;DHT22;29654;50.784;20.604;2024-02-04T11:40:16;13.80;53.40
43991;DHT22;29654;50.784;20.604;2024-02-04T11:45:19;13.80;53.30
43991;DHT22;29654;50.784;20.604;2024-02-04T11:50:29;13.90;53.30
43991;DHT22;29654;50.784;20.604;2024-02-04T11:55:33;14.10;52.30
43991;DHT22;29654;50.784;20.604;2024-02-04T12:00:37;14.10;52.50
43991;DHT22;29654;50.784;20.604;2024-02-04T12:05:41;14.20;52.50
43991;DHT22;29654;50.784;20.604;2024-02-04T12:10:45;14.20;52.30
43991;DHT22;29654;50.784;20.604;2024-02-04T12:15:49;14.20;52.20
43991;DHT22;29654;50.784;20.604;2024-02-04T12:20:53;14.20;52.20
43991;DHT22;29654;50.784;20.604;2024-02-04T12:25:56;14.30;52.10
43991;DHT22;29654;50.784;20.604;2024-02-04T12:30:59;14.30;52.30
43991;DHT22;29654;50.784;20.604;2024-02-04T12:36:03;14.30;51.80
43991;DHT22;29654;50.784;20.604;2024-02-04T12:41:06;14.30;51.60
43991;DHT22;29654;50.784;20.604;2024-02-04T12:46:09;14.30;51.60
43991;DHT22;29654;50.784;20.604;2024-02-04T12:51:23;14.30;51.50
43991;DHT22;29654;50.784;20.604;2024-02-04T12:56:27;14.30;50.90
43991;DHT22;29654;50.784;20.604;2024-02-04T13:01:29;14.30;51.60
43991;DHT22;29654;50.784;20.604;2024-02-04T13:06:39;14.40;51.40
43991;DHT22;29654;50.784;20.604;2024-02-04T13:11:42;14.40;50.90
43991;DHT22;29654;50.784;20.604;2024-02-04T13:16:45;14.40;51.20
43991;DHT22;29654;50.784;20.604;2024-02-04T13:21:50;14.40;51.20
43991;DHT22;29654;50.784;20.604;2024-02-04T13:26:53;14.40;51.20
43991;DHT22;29654;50.784;20.604;2024-02-04T13:31:58;14.40;51.00
43991;DHT22;29654;50.784;20.604;2024-02-04T13:37:02;14.40;50.80
43991;DHT22;29654;50.784;20.604;2024-02-04T13:42:05;14.40;50.60
43991;DHT22;29654;50.784;20.604;2024-02-04T13:47:08;14.30;50.60
43991;DHT22;29654;50.784;20.604;2024-02-04T13:52:12;14.20;50.80
43991;DHT22;29654;50.784;20.604;2024-02-04T13:57:15;14.30;50.80
43991;DHT22;29654;50.784;20.604;2024-02-04T14:02:18;14.20;50.70
43991;DHT22;29654;50.784;20.604;2024-02-04T14:07:22;14.20;51.10
43991;DHT22;29654;50.784;20.604;2024-02-04T14:12:25;14.20;51.10
43991;DHT22;29654;50.784;20.604;2024-02-04T14:17:30;14.20;51.10
43991;DHT22;29654;50.784;20.604;2024-02-04T14:22:34;14.20;51.20
43991;DHT22;29654;50.784;20.604;2024-02-04T14:27:39;14.20;51.20
43991;DHT22;29654;50.784;20.604;2024-02-04T14:32:42;14.20;51.50
43991;DHT22;29654;50.784;20.604;2024-02-04T14:37:47;14.20;51.30
43991;DHT22;29654;50.784;20.604;2024-02-04T14:42:49;14.20;51.20
43991;DHT22;29654;50.784;20.604;2024-02-04T14:47:52;14.10;51.30
43991;DHT22;29654;50.784;20.604;2024-02-04T14:52:56;14.10;51.40
43991;DHT22;29654;50.784;20.604;2024-02-04T14:57:59;14.00;51.50
43991;DHT22;29654;50.784;20.604;2024-02-04T15:03:01;14.00;51.60
43991;DHT22;29654;50.784;20.604;2024-02-04T15:08:06;13.90;51.80
43991;DHT22;29654;50.784;20.604;2024-02-04T15:13:10;14.00;51.80
43991;DHT22;29654;50.784;20.604;2024-02-04T15:18:13;13.90;51.80
43991;DHT22;29654;50.784;20.604;2024-02-04T15:23:18;13.90;51.90
43991;DHT22;29654;50.784;20.604;2024-02-04T15:28:24;13.90;52.00
43991;DHT22;29654;50.784;20.604;2024-02-04T15:33:27;13.80;52.10
43991;DHT22;29654;50.784;20.604;2024-02-04T15:38:32;13.80;52.20
43991;DHT22;29654;50.784;20.604;2024-02-04T15:43:34;13.70;52.40
43991;DHT22;29654;50.784;20.604;2024-02-04T15:48:38;13.70;52.60
43991;DHT22;29654;50.784;20.604;2024-02-04T15:53:43;13.60;52.60
43991;DHT22;29654;50.784;20.604;2024-02-04T15:58:47;13.60;52.80
43991;DHT22;29654;50.784;20.604;2024-02-04T16:03:53;13.60;52.90
43991;DHT22;29654;50.784;20.604;2024-02-04T16:08:58;13.60;53.10
43991;DHT22;29654;50.784;20.604;2024-02-04T16:14:02;13.60;53.20
43991;DHT22;29654;50.784;20.604;2024-02-04T16:19:05;13.60;53.30
43991;DHT22;29654;50.784;20.604;2024-02-04T16:24:11;13.60;53.40
43991;DHT22;29654;50.784;20.604;2024-02-04T16:29:13;13.70;53.50
43991;DHT22;29654;50.784;20.604;2024-02-04T16:34:16;13.70;53.50
43991;DHT22;29654;50.784;20.604;2024-02-04T16:39:20;13.70;54.20
43991;DHT22;29654;50.784;20.604;2024-02-04T16:44:23;13.70;53.60
43991;DHT22;29654;50.784;20.604;2024-02-04T16:49:27;13.70;53.80
43991;DHT22;29654;50.784;20.604;2024-02-04T16:54:33;13.80;53.80
43991;DHT22;29654;50.784;20.604;2024-02-04T16:59:35;13.80;53.90
43991;DHT22;29654;50.784;20.604;2024-02-04T17:04:39;13.90;53.90
43991;DHT22;29654;50.784;20.604;2024-02-04T17:09:44;13.90;53.90
43991;DHT22;29654;50.784;20.604;2024-02-04T17:14:51;14.00;53.90
43991;DHT22;29654;50.784;20.604;2024-02-04T17:20:01;14.00;54.00
43991;DHT22;29654;50.784;20.604;2024-02-04T17:25:14;14.00;54.10
43991;DHT22;29654;50.784;20.604;2024-02-04T17:30:19;14.00;54.00
43991;DHT22;29654;50.784;20.604;2024-02-04T17:35:22;14.00;54.00
43991;DHT22;29654;50.784;20.604;2024-02-04T17:40:28;13.80;54.10
43991;DHT22;29654;50.784;20.604;2024-02-04T17:45:32;13.80;54.40
43991;DHT22;29654;50.784;20.604;2024-02-04T17:50:35;13.70;54.50
43991;DHT22;29654;50.784;20.604;2024-02-04T17:55:39;13.70;54.50
43991;DHT22;29654;50.784;20.604;2024-02-04T18:00:43;13.70;54.50
43991;DHT22;29654;50.784;20.604;2024-02-04T18:05:46;13.70;54.30
43991;DHT22;29654;50.784;20.604;2024-02-04T18:10:50;13.70;54.10
43991;DHT22;29654;50.784;20.604;2024-02-04T18:15:53;13.60;53.90
43991;DHT22;29654;50.784;20.604;2024-02-04T18:20:55;13.50;54.00
43991;DHT22;29654;50.784;20.604;2024-02-04T18:26:00;13.40;53.70
43991;DHT22;29654;50.784;20.604;2024-02-04T18:31:02;13.30;53.60
43991;DHT22;29654;50.784;20.604;2024-02-04T18:36:05;13.20;53.50
43991;DHT22;29654;50.784;20.604;2024-02-04T18:41:10;13.20;53.40
43991;DHT22;29654;50.784;20.604;2024-02-04T18:46:13;13.10;52.80
43991;DHT22;29654;50.784;20.604;2024-02-04T18:51:15;13.10;52.70
43991;DHT22;29654;50.784;20.604;2024-02-04T18:56:22;13.00;52.40
43991;DHT22;29654;50.784;20.604;2024-02-04T19:01:24;13.00;52.00
43991;DHT22;29654;50.784;20.604;2024-02-04T19:06:30;12.90;52.20
43991;DHT22;29654;50.784;20.604;2024-02-04T19:11:39;12.90;52.20
43991;DHT22;29654;50.784;20.604;2024-02-04T19:16:43;12.90;51.80
43991;DHT22;29654;50.784;20.604;2024-02-04T19:21:46;12.80;51.90
43991;DHT22;29654;50.784;20.604;2024-02-04T19:26:51;12.80;51.80
43991;DHT22;29654;50.784;20.604;2024-02-04T19:31:54;12.80;52.00
43991;DHT22;29654;50.784;20.604;2024-02-04T19:36:58;12.80;52.10
43991;DHT22;29654;50.784;20.604;2024-02-04T19:42:03;12.80;51.70
43991;DHT22;29654;50.784;20.604;2024-02-04T19:47:05;12.80;51.70
43991;DHT22;29654;50.784;20.604;2024-02-04T19:52:08;12.80;52.30
43991;DHT22;29654;50.784;20.604;2024-02-04T19:57:12;12.80;52.10
43991;DHT22;29654;50.784;20.604;2024-02-04T20:02:16;12.90;51.60
43991;DHT22;29654;50.784;20.604;2024-02-04T20:07:18;12.90;51.80
43991;DHT22;29654;50.784;20.604;2024-02-04T20:12:23;12.80;51.70
43991;DHT22;29654;50.784;20.604;2024-02-04T20:17:28;12.80;51.60
43991;DHT22;29654;50.784;20.604;2024-02-04T20:22:31;12.80;51.80
43991;DHT22;29654;50.784;20.604;2024-02-04T20:27:35;12.90;51.90
43991;DHT22;29654;50.784;20.604;2024-02-04T20:32:37;12.90;51.80
43991;DHT22;29654;50.784;20.604;2024-02-04T20:37:40;12.90;51.80
43991;DHT22;29654;50.784;20.604;2024-02-04T20:42:44;12.90;51.90
43991;DHT22;29654;50.784;20.604;2024-02-04T20:47:47;12.90;51.90
43991;DHT22;29654;50.784;20.604;2024-02-04T20:52:50;12.90;51.90
43991;DHT22;29654;50.784;20.604;2024-02-04T20:57:55;12.90;51.90
43991;DHT22;29654;50.784;20.604;2024-02-04T21:02:59;12.90;51.90
43991;DHT22;29654;50.784;20.604;2024-02-04T21:08:03;12.90;52.10
43991;DHT22;29654;50.784;20.604;2024-02-04T21:13:08;12.90;52.00
43991;DHT22;29654;50.784;20.604;2024-02-04T21:18:11;12.80;52.10
43991;DHT22;29654;50.784;20.604;2024-02-04T21:23:14;12.80;52.60
43991;DHT22;29654;50.784;20.604;2024-02-04T21:28:18;12.80;52.40
43991;DHT22;29654;50.784;20.604;2024-02-04T21:33:21;12.80;52.40
43991;DHT22;29654;50.784;20.604;2024-02-04T21:38:23;12.70;52.40
43991;DHT22;29654;50.784;20.604;2024-02-04T21:43:27;12.70;52.40
43991;DHT22;29654;50.784;20.604;2024-02-04T21:48:30;12.70;52.60
43991;DHT22;29654;50.784;20.604;2024-02-04T21:53:34;12.70;52.70
43991;DHT22;29654;50.784;20.604;2024-02-04T21:58:38;12.70;52.80
43991;DHT22;29654;50.784;20.604;2024-02-04T22:03:40;12.70;52.90
43991;DHT22;29654;50.784;20.604;2024-02-04T22:08:43;12.70;53.00
43991;DHT22;29654;50.784;20.604;2024-02-04T22:13:47;12.60;53.10
43991;DHT22;29654;50.784;20.604;2024-02-04T22:18:50;12.60;53.20
43991;DHT22;29654;50.784;20.604;2024-02-04T22:23:52;12.50;53.40
43991;DHT22;29654;50.784;20.604;2024-02-04T22:28:57;12.50;53.50
43991;DHT22;29654;50.784;20.604;2024-02-04T22:34:00;12.50;53.60
43991;DHT22;29654;50.784;20.604;2024-02-04T22:39:03;12.50;53.80
43991;DHT22;29654;50.784;20.604;2024-02-04T22:44:08;12.50;53.90
43991;DHT22;29654;50.784;20.604;2024-02-04T22:49:11;12.40;54.00
43991;DHT22;29654;50.784;20.604;2024-02-04T22:54:14;12.40;54.10
43991;DHT22;29654;50.784;20.604;2024-02-04T22:59:18;12.30;54.20
43991;DHT22;29654;50.784;20.604;2024-02-04T23:04:23;12.30;54.30
43991;DHT22;29654;50.784;20.604;2024-02-04T23:09:25;12.30;54.40
43991;DHT22;29654;50.784;20.604;2024-02-04T23:14:29;12.30;54.50
43991;DHT22;29654;50.784;20.604;2024-02-04T23:19:32;12.20;54.60
43991;DHT22;29654;50.784;20.604;2024-02-04T23:24:35;12.20;54.80
43991;DHT22;29654;50.784;20.604;2024-02-04T23:29:39;12.20;54.80
43991;DHT22;29654;50.784;20.604;2024-02-04T23:34:42;12.20;55.00
43991;DHT22;29654;50.784;20.604;2024-02-04T23:39:45;12.20;55.10
43991;DHT22;29654;50.784;20.604;2024-02-04T23:44:49;12.20;55.10
43991;DHT22;29654;50.784;20.604;2024-02-04T23:49:52;12.20;55.20
43991;DHT22;29654;50.784;20.604;2024-02-04T23:54:55;12.20;55.20
